sensor_id;sensor_type;location;lat;lon;timestamp;P1;durP1;ratioP1;P2;durP2;ratioP2
79124;SDS011;68527;39.470;-0.376;2023-05-19T00:00:48;3.30;;;2.60;;
79124;SDS011;68527;39.470;-0.376;2023-05-19T00:03:14;5.30;;;3.20;;
79124;SDS011;68527;39.470;-0.376;2023-05-19T00:05:41;5.80;;;3.10;;
79124;SDS011;68527;39.470;-0.376;2023-05-19T00:08:10;4.70;;;3.10;;
79124;SDS011;68527;39.470;-0.376;2023-05-19T00:10:36;6.40;;;3.20;;
79124;SDS011;68527;39.470;-0.376;2023-05-19T00:13:03;5.20;;;3.10;;
79124;SDS011;68527;39.470;-0.376;2023-05-19T00:15:29;5.30;;;3.00;;
79124;SDS011;68527;39.470;-0.376;2023-05-19T00:17:54;4.70;;;3.50;;
79124;SDS011;68527;39.470;-0.376;2023-05-19T00:20:20;4.40;;;2.70;;
79124;SDS011;68527;39.470;-0.376;2023-05-19T00:22:46;4.50;;;2.70;;
79124;SDS011;68527;39.470;-0.376;2023-05-19T00:25:12;7.20;;;3.10;;
79124;SDS011;68527;39.470;-0.376;2023-05-19T00:30:03;4.00;;;2.90;;
79124;SDS011;68527;39.470;-0.376;2023-05-19T00:32:29;4.80;;;2.90;;
79124;SDS011;68527;39.470;-0.376;2023-05-19T00:37:20;5.20;;;2.30;;
79124;SDS011;68527;39.470;-0.376;2023-05-19T00:39:47;7.20;;;2.60;;
79124;SDS011;68527;39.470;-0.376;2023-05-19T00:42:13;4.50;;;2.70;;
79124;SDS011;68527;39.470;-0.376;2023-05-19T00:44:39;3.70;;;2.80;;
79124;SDS011;68527;39.470;-0.376;2023-05-19T00:47:06;4.60;;;2.70;;
79124;SDS011;68527;39.470;-0.376;2023-05-19T00:49:32;3.90;;;2.90;;
79124;SDS011;68527;39.470;-0.376;2023-05-19T00:51:58;7.00;;;2.70;;
79124;SDS011;68527;39.470;-0.376;2023-05-19T00:54:26;4.60;;;2.80;;
79124;SDS011;68527;39.470;-0.376;2023-05-19T00:56:52;4.80;;;2.40;;
79124;SDS011;68527;39.470;-0.376;2023-05-19T00:59:19;5.40;;;3.20;;
79124;SDS011;68527;39.470;-0.376;2023-05-19T01:01:45;6.00;;;2.90;;
79124;SDS011;68527;39.470;-0.376;2023-05-19T01:04:19;3.90;;;2.40;;
79124;SDS011;68527;39.470;-0.376;2023-05-19T01:06:48;5.80;;;3.40;;
79124;SDS011;68527;39.470;-0.376;2023-05-19T01:09:19;7.30;;;2.90;;
79124;SDS011;68527;39.470;-0.376;2023-05-19T01:11:48;3.60;;;2.60;;
79124;SDS011;68527;39.470;-0.376;2023-05-19T01:14:14;4.40;;;2.70;;
79124;SDS011;68527;39.470;-0.376;2023-05-19T01:16:53;5.00;;;2.40;;
79124;SDS011;68527;39.470;-0.376;2023-05-19T01:30:57;5.70;;;2.90;;
79124;SDS011;68527;39.470;-0.376;2023-05-19T01:33:24;6.40;;;2.20;;
79124;SDS011;68527;39.470;-0.376;2023-05-19T01:35:51;3.30;;;2.40;;
79124;SDS011;68527;39.470;-0.376;2023-05-19T01:38:18;10.70;;;2.90;;
79124;SDS011;68527;39.470;-0.376;2023-05-19T01:40:44;4.50;;;2.60;;
79124;SDS011;68527;39.470;-0.376;2023-05-19T01:43:13;4.30;;;2.80;;
79124;SDS011;68527;39.470;-0.376;2023-05-19T01:45:42;4.00;;;2.60;;
79124;SDS011;68527;39.470;-0.376;2023-05-19T01:48:08;4.90;;;2.50;;
79124;SDS011;68527;39.470;-0.376;2023-05-19T01:50:33;4.80;;;2.90;;
79124;SDS011;68527;39.470;-0.376;2023-05-19T01:52:59;5.20;;;2.70;;
79124;SDS011;68527;39.470;-0.376;2023-05-19T01:55:25;3.50;;;1.90;;
79124;SDS011;68527;39.470;-0.376;2023-05-19T01:57:59;3.90;;;2.50;;
79124;SDS011;68527;39.470;-0.376;2023-05-19T02:01:13;4.20;;;2.80;;
79124;SDS011;68527;39.470;-0.376;2023-05-19T02:03:52;5.40;;;2.80;;
79124;SDS011;68527;39.470;-0.376;2023-05-19T02:06:45;4.70;;;2.50;;
79124;SDS011;68527;39.470;-0.376;2023-05-19T02:09:22;4.00;;;2.40;;
79124;SDS011;68527;39.470;-0.376;2023-05-19T02:12:16;4.50;;;3.00;;
79124;SDS011;68527;39.470;-0.376;2023-05-19T02:14:46;3.90;;;2.30;;
79124;SDS011;68527;39.470;-0.376;2023-05-19T02:17:15;4.80;;;2.50;;
79124;SDS011;68527;39.470;-0.376;2023-05-19T02:19:42;3.30;;;2.10;;
79124;SDS011;68527;39.470;-0.376;2023-05-19T02:22:08;5.30;;;2.70;;
79124;SDS011;68527;39.470;-0.376;2023-05-19T02:24:33;4.50;;;2.60;;
79124;SDS011;68527;39.470;-0.376;2023-05-19T02:27:00;7.20;;;3.00;;
79124;SDS011;68527;39.470;-0.376;2023-05-19T02:29:26;5.50;;;2.80;;
79124;SDS011;68527;39.470;-0.376;2023-05-19T02:31:52;3.60;;;2.50;;
79124;SDS011;68527;39.470;-0.376;2023-05-19T02:36:43;4.40;;;2.50;;
79124;SDS011;68527;39.470;-0.376;2023-05-19T02:39:09;4.90;;;2.50;;
79124;SDS011;68527;39.470;-0.376;2023-05-19T02:41:35;6.80;;;2.60;;
79124;SDS011;68527;39.470;-0.376;2023-05-19T02:44:02;6.30;;;2.80;;
79124;SDS011;68527;39.470;-0.376;2023-05-19T02:46:27;4.60;;;2.80;;
79124;SDS011;68527;39.470;-0.376;2023-05-19T02:51:18;4.60;;;3.00;;
79124;SDS011;68527;39.470;-0.376;2023-05-19T02:53:44;6.20;;;2.70;;
79124;SDS011;68527;39.470;-0.376;2023-05-19T02:56:10;4.90;;;2.80;;
79124;SDS011;68527;39.470;-0.376;2023-05-19T02:58:36;5.40;;;2.80;;
79124;SDS011;68527;39.470;-0.376;2023-05-19T03:01:02;5.40;;;2.50;;
79124;SDS011;68527;39.470;-0.376;2023-05-19T03:05:53;4.40;;;2.70;;
79124;SDS011;68527;39.470;-0.376;2023-05-19T03:08:19;5.20;;;2.50;;
79124;SDS011;68527;39.470;-0.376;2023-05-19T03:10:44;6.40;;;2.80;;
79124;SDS011;68527;39.470;-0.376;2023-05-19T03:13:11;5.60;;;2.60;;
79124;SDS011;68527;39.470;-0.376;2023-05-19T03:15:37;4.20;;;2.20;;
79124;SDS011;68527;39.470;-0.376;2023-05-19T03:18:02;4.50;;;2.60;;
79124;SDS011;68527;39.470;-0.376;2023-05-19T03:20:28;7.20;;;2.90;;
79124;SDS011;68527;39.470;-0.376;2023-05-19T03:22:57;3.60;;;2.40;;
79124;SDS011;68527;39.470;-0.376;2023-05-19T03:25:24;4.00;;;2.40;;
79124;SDS011;68527;39.470;-0.376;2023-05-19T03:27:50;4.60;;;2.30;;
79124;SDS011;68527;39.470;-0.376;2023-05-19T03:32:41;4.50;;;2.30;;
79124;SDS011;68527;39.470;-0.376;2023-05-19T03:35:06;4.70;;;2.40;;
79124;SDS011;68527;39.470;-0.376;2023-05-19T03:37:32;5.10;;;2.40;;
79124;SDS011;68527;39.470;-0.376;2023-05-19T03:42:23;6.90;;;2.40;;
79124;SDS011;68527;39.470;-0.376;2023-05-19T03:44:49;4.70;;;2.30;;
79124;SDS011;68527;39.470;-0.376;2023-05-19T03:49:40;3.70;;;2.30;;
79124;SDS011;68527;39.470;-0.376;2023-05-19T03:52:06;3.20;;;2.00;;
79124;SDS011;68527;39.470;-0.376;2023-05-19T03:56:57;4.10;;;2.20;;
79124;SDS011;68527;39.470;-0.376;2023-05-19T03:59:22;4.60;;;2.70;;
79124;SDS011;68527;39.470;-0.376;2023-05-19T04:01:48;4.40;;;2.60;;
79124;SDS011;68527;39.470;-0.376;2023-05-19T04:04:15;3.60;;;2.30;;
79124;SDS011;68527;39.470;-0.376;2023-05-19T04:06:40;5.90;;;2.70;;
79124;SDS011;68527;39.470;-0.376;2023-05-19T04:11:38;2.40;;;1.90;;
79124;SDS011;68527;39.470;-0.376;2023-05-19T04:14:04;5.40;;;3.20;;
79124;SDS011;68527;39.470;-0.376;2023-05-19T04:16:31;5.80;;;2.10;;
79124;SDS011;68527;39.470;-0.376;2023-05-19T04:18:56;4.80;;;2.10;;
79124;SDS011;68527;39.470;-0.376;2023-05-19T04:23:47;4.20;;;2.10;;
79124;SDS011;68527;39.470;-0.376;2023-05-19T04:28:39;4.00;;;2.60;;
79124;SDS011;68527;39.470;-0.376;2023-05-19T04:31:06;4.60;;;2.40;;
79124;SDS011;68527;39.470;-0.376;2023-05-19T04:33:37;5.00;;;2.10;;
79124;SDS011;68527;39.470;-0.376;2023-05-19T04:36:03;3.60;;;2.50;;
79124;SDS011;68527;39.470;-0.376;2023-05-19T04:38:29;4.00;;;2.30;;
79124;SDS011;68527;39.470;-0.376;2023-05-19T04:43:20;3.40;;;2.00;;
79124;SDS011;68527;39.470;-0.376;2023-05-19T04:48:14;5.70;;;2.30;;
79124;SDS011;68527;39.470;-0.376;2023-05-19T04:50:39;7.80;;;3.00;;
79124;SDS011;68527;39.470;-0.376;2023-05-19T04:53:12;4.50;;;2.80;;
79124;SDS011;68527;39.470;-0.376;2023-05-19T04:55:38;4.00;;;2.10;;
79124;SDS011;68527;39.470;-0.376;2023-05-19T04:58:04;4.00;;;2.20;;
79124;SDS011;68527;39.470;-0.376;2023-05-19T05:00:30;5.60;;;2.60;;
79124;SDS011;68527;39.470;-0.376;2023-05-19T05:02:56;4.50;;;2.30;;
79124;SDS011;68527;39.470;-0.376;2023-05-19T05:05:22;3.70;;;2.10;;
79124;SDS011;68527;39.470;-0.376;2023-05-19T05:07:49;6.40;;;2.60;;
79124;SDS011;68527;39.470;-0.376;2023-05-19T05:10:15;5.00;;;2.30;;
79124;SDS011;68527;39.470;-0.376;2023-05-19T05:12:40;5.30;;;2.90;;
79124;SDS011;68527;39.470;-0.376;2023-05-19T05:15:07;5.50;;;3.10;;
79124;SDS011;68527;39.470;-0.376;2023-05-19T05:17:33;6.10;;;3.30;;
79124;SDS011;68527;39.470;-0.376;2023-05-19T05:20:00;4.70;;;2.70;;
79124;SDS011;68527;39.470;-0.376;2023-05-19T05:22:27;6.50;;;3.40;;
79124;SDS011;68527;39.470;-0.376;2023-05-19T05:24:53;6.60;;;4.00;;
79124;SDS011;68527;39.470;-0.376;2023-05-19T05:27:19;8.60;;;3.90;;
79124;SDS011;68527;39.470;-0.376;2023-05-19T05:29:45;11.70;;;4.10;;
79124;SDS011;68527;39.470;-0.376;2023-05-19T05:32:11;9.90;;;4.00;;
79124;SDS011;68527;39.470;-0.376;2023-05-19T05:34:37;8.10;;;4.00;;
79124;SDS011;68527;39.470;-0.376;2023-05-19T05:37:04;8.90;;;4.20;;
79124;SDS011;68527;39.470;-0.376;2023-05-19T05:39:30;10.60;;;4.20;;
79124;SDS011;68527;39.470;-0.376;2023-05-19T05:41:55;8.70;;;3.70;;
79124;SDS011;68527;39.470;-0.376;2023-05-19T05:46:46;10.40;;;3.80;;
79124;SDS011;68527;39.470;-0.376;2023-05-19T05:49:12;9.10;;;4.40;;
79124;SDS011;68527;39.470;-0.376;2023-05-19T05:51:38;9.30;;;4.20;;
79124;SDS011;68527;39.470;-0.376;2023-05-19T05:54:05;7.70;;;3.70;;
79124;SDS011;68527;39.470;-0.376;2023-05-19T05:56:31;8.80;;;3.90;;
79124;SDS011;68527;39.470;-0.376;2023-05-19T05:58:58;6.30;;;3.80;;
79124;SDS011;68527;39.470;-0.376;2023-05-19T06:01:24;9.70;;;3.50;;
79124;SDS011;68527;39.470;-0.376;2023-05-19T06:03:50;7.00;;;4.00;;
79124;SDS011;68527;39.470;-0.376;2023-05-19T06:06:15;7.20;;;4.00;;
79124;SDS011;68527;39.470;-0.376;2023-05-19T06:11:06;9.70;;;3.70;;
79124;SDS011;68527;39.470;-0.376;2023-05-19T06:13:36;8.10;;;3.50;;
79124;SDS011;68527;39.470;-0.376;2023-05-19T06:16:02;9.60;;;3.70;;
79124;SDS011;68527;39.470;-0.376;2023-05-19T06:18:28;9.10;;;3.70;;
79124;SDS011;68527;39.470;-0.376;2023-05-19T06:20:54;8.80;;;4.00;;
79124;SDS011;68527;39.470;-0.376;2023-05-19T06:23:20;9.50;;;4.00;;
79124;SDS011;68527;39.470;-0.376;2023-05-19T06:25:46;8.10;;;3.70;;
79124;SDS011;68527;39.470;-0.376;2023-05-19T06:30:36;11.40;;;3.90;;
79124;SDS011;68527;39.470;-0.376;2023-05-19T06:33:02;10.10;;;4.60;;
79124;SDS011;68527;39.470;-0.376;2023-05-19T06:35:28;9.70;;;4.50;;
79124;SDS011;68527;39.470;-0.376;2023-05-19T06:37:54;11.00;;;4.30;;
79124;SDS011;68527;39.470;-0.376;2023-05-19T06:40:20;12.40;;;4.70;;
79124;SDS011;68527;39.470;-0.376;2023-05-19T06:42:46;9.80;;;4.30;;
79124;SDS011;68527;39.470;-0.376;2023-05-19T06:45:12;9.50;;;4.10;;
79124;SDS011;68527;39.470;-0.376;2023-05-19T06:47:38;10.70;;;4.40;;
79124;SDS011;68527;39.470;-0.376;2023-05-19T06:50:08;10.10;;;4.40;;
79124;SDS011;68527;39.470;-0.376;2023-05-19T06:52:34;9.50;;;4.30;;
79124;SDS011;68527;39.470;-0.376;2023-05-19T06:55:00;8.20;;;4.10;;
79124;SDS011;68527;39.470;-0.376;2023-05-19T06:57:26;9.10;;;4.20;;
79124;SDS011;68527;39.470;-0.376;2023-05-19T06:59:52;10.10;;;4.50;;
79124;SDS011;68527;39.470;-0.376;2023-05-19T07:02:17;10.70;;;4.60;;
79124;SDS011;68527;39.470;-0.376;2023-05-19T07:07:08;8.90;;;4.00;;
79124;SDS011;68527;39.470;-0.376;2023-05-19T07:09:34;9.00;;;4.50;;
79124;SDS011;68527;39.470;-0.376;2023-05-19T07:11:59;10.60;;;4.60;;
79124;SDS011;68527;39.470;-0.376;2023-05-19T07:14:25;10.50;;;4.60;;
79124;SDS011;68527;39.470;-0.376;2023-05-19T07:16:51;7.90;;;4.90;;
79124;SDS011;68527;39.470;-0.376;2023-05-19T07:19:17;8.80;;;4.20;;
79124;SDS011;68527;39.470;-0.376;2023-05-19T07:21:45;8.60;;;3.90;;
79124;SDS011;68527;39.470;-0.376;2023-05-19T07:24:11;11.40;;;4.20;;
79124;SDS011;68527;39.470;-0.376;2023-05-19T07:26:36;9.40;;;4.10;;
79124;SDS011;68527;39.470;-0.376;2023-05-19T07:31:27;10.40;;;3.60;;
79124;SDS011;68527;39.470;-0.376;2023-05-19T07:36:18;10.00;;;3.80;;
79124;SDS011;68527;39.470;-0.376;2023-05-19T07:38:45;8.00;;;4.10;;
79124;SDS011;68527;39.470;-0.376;2023-05-19T07:41:10;11.60;;;4.30;;
79124;SDS011;68527;39.470;-0.376;2023-05-19T07:43:36;7.30;;;3.30;;
79124;SDS011;68527;39.470;-0.376;2023-05-19T07:46:02;6.50;;;4.40;;
79124;SDS011;68527;39.470;-0.376;2023-05-19T07:48:28;9.70;;;4.20;;
79124;SDS011;68527;39.470;-0.376;2023-05-19T07:50:54;7.50;;;3.60;;
79124;SDS011;68527;39.470;-0.376;2023-05-19T07:53:20;9.90;;;4.00;;
79124;SDS011;68527;39.470;-0.376;2023-05-19T07:55:46;7.90;;;3.70;;
79124;SDS011;68527;39.470;-0.376;2023-05-19T07:58:12;9.10;;;3.90;;
79124;SDS011;68527;39.470;-0.376;2023-05-19T08:00:38;10.80;;;4.00;;
79124;SDS011;68527;39.470;-0.376;2023-05-19T08:03:07;6.70;;;3.70;;
79124;SDS011;68527;39.470;-0.376;2023-05-19T08:05:33;7.50;;;3.50;;
79124;SDS011;68527;39.470;-0.376;2023-05-19T08:07:59;8.10;;;3.70;;
79124;SDS011;68527;39.470;-0.376;2023-05-19T08:10:25;7.00;;;3.60;;
79124;SDS011;68527;39.470;-0.376;2023-05-19T08:12:50;10.00;;;3.80;;
79124;SDS011;68527;39.470;-0.376;2023-05-19T08:15:16;7.50;;;3.50;;
79124;SDS011;68527;39.470;-0.376;2023-05-19T08:17:43;6.20;;;3.40;;
79124;SDS011;68527;39.470;-0.376;2023-05-19T08:20:09;8.50;;;3.80;;
79124;SDS011;68527;39.470;-0.376;2023-05-19T08:22:36;8.20;;;3.30;;
79124;SDS011;68527;39.470;-0.376;2023-05-19T08:25:03;6.70;;;3.70;;
79124;SDS011;68527;39.470;-0.376;2023-05-19T08:27:29;7.50;;;3.40;;
79124;SDS011;68527;39.470;-0.376;2023-05-19T08:29:55;5.60;;;4.00;;
79124;SDS011;68527;39.470;-0.376;2023-05-19T08:32:21;5.40;;;2.90;;
79124;SDS011;68527;39.470;-0.376;2023-05-19T08:34:47;6.70;;;3.60;;
79124;SDS011;68527;39.470;-0.376;2023-05-19T08:37:13;7.40;;;3.40;;
79124;SDS011;68527;39.470;-0.376;2023-05-19T08:39:39;8.70;;;3.60;;
79124;SDS011;68527;39.470;-0.376;2023-05-19T08:42:05;5.30;;;3.10;;
79124;SDS011;68527;39.470;-0.376;2023-05-19T08:44:34;5.90;;;3.20;;
79124;SDS011;68527;39.470;-0.376;2023-05-19T08:47:02;7.20;;;3.50;;
79124;SDS011;68527;39.470;-0.376;2023-05-19T08:49:39;6.30;;;3.40;;
79124;SDS011;68527;39.470;-0.376;2023-05-19T08:54:45;6.40;;;3.10;;
79124;SDS011;68527;39.470;-0.376;2023-05-19T08:57:18;6.30;;;3.40;;
79124;SDS011;68527;39.470;-0.376;2023-05-19T08:59:45;6.00;;;3.30;;
79124;SDS011;68527;39.470;-0.376;2023-05-19T09:02:12;6.50;;;3.40;;
79124;SDS011;68527;39.470;-0.376;2023-05-19T09:04:38;7.20;;;3.70;;
79124;SDS011;68527;39.470;-0.376;2023-05-19T09:07:05;6.80;;;3.40;;
79124;SDS011;68527;39.470;-0.376;2023-05-19T09:09:30;6.50;;;3.10;;
79124;SDS011;68527;39.470;-0.376;2023-05-19T09:11:56;5.80;;;3.30;;
79124;SDS011;68527;39.470;-0.376;2023-05-19T09:14:22;4.80;;;3.00;;
79124;SDS011;68527;39.470;-0.376;2023-05-19T09:16:48;7.60;;;3.40;;
79124;SDS011;68527;39.470;-0.376;2023-05-19T09:19:16;7.40;;;3.50;;
79124;SDS011;68527;39.470;-0.376;2023-05-19T09:21:42;4.90;;;3.10;;
79124;SDS011;68527;39.470;-0.376;2023-05-19T09:24:09;6.10;;;3.10;;
79124;SDS011;68527;39.470;-0.376;2023-05-19T09:26:39;5.30;;;2.90;;
79124;SDS011;68527;39.470;-0.376;2023-05-19T09:29:12;5.40;;;2.90;;
79124;SDS011;68527;39.470;-0.376;2023-05-19T09:31:53;6.70;;;3.70;;
79124;SDS011;68527;39.470;-0.376;2023-05-19T09:34:20;6.20;;;3.00;;
79124;SDS011;68527;39.470;-0.376;2023-05-19T09:36:47;6.10;;;3.20;;
79124;SDS011;68527;39.470;-0.376;2023-05-19T09:39:16;5.60;;;3.20;;
79124;SDS011;68527;39.470;-0.376;2023-05-19T09:41:43;5.20;;;2.80;;
79124;SDS011;68527;39.470;-0.376;2023-05-19T09:44:20;6.30;;;3.20;;
79124;SDS011;68527;39.470;-0.376;2023-05-19T09:46:52;5.40;;;3.00;;
79124;SDS011;68527;39.470;-0.376;2023-05-19T09:49:21;4.20;;;3.00;;
79124;SDS011;68527;39.470;-0.376;2023-05-19T09:52:09;5.50;;;3.40;;
79124;SDS011;68527;39.470;-0.376;2023-05-19T09:54:34;8.20;;;3.10;;
79124;SDS011;68527;39.470;-0.376;2023-05-19T09:57:01;5.60;;;2.90;;
79124;SDS011;68527;39.470;-0.376;2023-05-19T09:59:28;5.00;;;3.20;;
79124;SDS011;68527;39.470;-0.376;2023-05-19T10:01:54;4.20;;;2.70;;
79124;SDS011;68527;39.470;-0.376;2023-05-19T10:04:21;5.50;;;3.10;;
79124;SDS011;68527;39.470;-0.376;2023-05-19T10:06:54;8.20;;;2.60;;
79124;SDS011;68527;39.470;-0.376;2023-05-19T10:09:26;4.50;;;2.90;;
79124;SDS011;68527;39.470;-0.376;2023-05-19T10:11:57;6.00;;;2.70;;
79124;SDS011;68527;39.470;-0.376;2023-05-19T10:14:23;5.10;;;3.00;;
79124;SDS011;68527;39.470;-0.376;2023-05-19T10:16:50;6.90;;;3.20;;
79124;SDS011;68527;39.470;-0.376;2023-05-19T10:19:20;5.00;;;3.50;;
79124;SDS011;68527;39.470;-0.376;2023-05-19T10:21:50;8.10;;;3.60;;
79124;SDS011;68527;39.470;-0.376;2023-05-19T10:24:17;6.30;;;2.80;;
79124;SDS011;68527;39.470;-0.376;2023-05-19T10:26:44;5.20;;;3.00;;
79124;SDS011;68527;39.470;-0.376;2023-05-19T10:29:13;5.50;;;3.20;;
79124;SDS011;68527;39.470;-0.376;2023-05-19T10:31:42;4.00;;;2.70;;
79124;SDS011;68527;39.470;-0.376;2023-05-19T10:36:45;4.10;;;2.80;;
79124;SDS011;68527;39.470;-0.376;2023-05-19T10:39:27;7.50;;;3.20;;
79124;SDS011;68527;39.470;-0.376;2023-05-19T10:47:28;4.90;;;2.90;;
79124;SDS011;68527;39.470;-0.376;2023-05-19T10:49:54;4.60;;;2.60;;
79124;SDS011;68527;39.470;-0.376;2023-05-19T10:52:21;3.90;;;2.70;;
79124;SDS011;68527;39.470;-0.376;2023-05-19T10:54:49;6.40;;;3.10;;
79124;SDS011;68527;39.470;-0.376;2023-05-19T10:57:15;8.70;;;2.70;;
79124;SDS011;68527;39.470;-0.376;2023-05-19T10:59:42;4.90;;;2.80;;
79124;SDS011;68527;39.470;-0.376;2023-05-19T11:05:08;4.60;;;2.90;;
79124;SDS011;68527;39.470;-0.376;2023-05-19T11:07:34;5.30;;;3.10;;
79124;SDS011;68527;39.470;-0.376;2023-05-19T11:10:04;6.20;;;3.50;;
79124;SDS011;68527;39.470;-0.376;2023-05-19T11:12:38;4.20;;;2.90;;
79124;SDS011;68527;39.470;-0.376;2023-05-19T11:15:11;5.90;;;3.30;;
79124;SDS011;68527;39.470;-0.376;2023-05-19T11:17:40;5.00;;;2.70;;
79124;SDS011;68527;39.470;-0.376;2023-05-19T11:20:07;4.70;;;3.10;;
79124;SDS011;68527;39.470;-0.376;2023-05-19T11:22:36;5.50;;;2.90;;
79124;SDS011;68527;39.470;-0.376;2023-05-19T11:25:03;5.00;;;2.70;;
79124;SDS011;68527;39.470;-0.376;2023-05-19T11:27:30;4.40;;;2.60;;
79124;SDS011;68527;39.470;-0.376;2023-05-19T11:29:57;4.80;;;2.60;;
79124;SDS011;68527;39.470;-0.376;2023-05-19T11:32:28;5.10;;;2.70;;
79124;SDS011;68527;39.470;-0.376;2023-05-19T11:34:54;4.80;;;2.40;;
79124;SDS011;68527;39.470;-0.376;2023-05-19T11:37:20;5.00;;;3.00;;
79124;SDS011;68527;39.470;-0.376;2023-05-19T11:39:47;6.30;;;2.70;;
79124;SDS011;68527;39.470;-0.376;2023-05-19T11:42:12;5.00;;;3.20;;
79124;SDS011;68527;39.470;-0.376;2023-05-19T11:44:38;4.00;;;2.80;;
79124;SDS011;68527;39.470;-0.376;2023-05-19T11:47:05;4.10;;;2.80;;
79124;SDS011;68527;39.470;-0.376;2023-05-19T11:49:32;5.80;;;3.30;;
79124;SDS011;68527;39.470;-0.376;2023-05-19T11:52:01;6.00;;;3.20;;
79124;SDS011;68527;39.470;-0.376;2023-05-19T11:54:28;6.00;;;3.20;;
79124;SDS011;68527;39.470;-0.376;2023-05-19T11:56:56;5.80;;;3.70;;
79124;SDS011;68527;39.470;-0.376;2023-05-19T11:59:31;5.60;;;3.40;;
79124;SDS011;68527;39.470;-0.376;2023-05-19T12:02:01;5.50;;;3.50;;
79124;SDS011;68527;39.470;-0.376;2023-05-19T12:04:29;7.90;;;3.20;;
79124;SDS011;68527;39.470;-0.376;2023-05-19T12:06:55;5.50;;;2.80;;
79124;SDS011;68527;39.470;-0.376;2023-05-19T12:09:21;5.90;;;2.90;;
79124;SDS011;68527;39.470;-0.376;2023-05-19T12:11:48;5.10;;;3.10;;
79124;SDS011;68527;39.470;-0.376;2023-05-19T12:14:16;6.00;;;3.30;;
79124;SDS011;68527;39.470;-0.376;2023-05-19T12:16:42;5.10;;;2.40;;
79124;SDS011;68527;39.470;-0.376;2023-05-19T12:21:33;5.40;;;3.00;;
79124;SDS011;68527;39.470;-0.376;2023-05-19T12:23:59;6.50;;;2.90;;
79124;SDS011;68527;39.470;-0.376;2023-05-19T12:26:26;4.60;;;2.80;;
79124;SDS011;68527;39.470;-0.376;2023-05-19T12:28:51;4.70;;;3.00;;
79124;SDS011;68527;39.470;-0.376;2023-05-19T12:31:18;6.20;;;2.90;;
79124;SDS011;68527;39.470;-0.376;2023-05-19T12:33:44;6.70;;;3.00;;
79124;SDS011;68527;39.470;-0.376;2023-05-19T12:36:15;4.60;;;2.70;;
79124;SDS011;68527;39.470;-0.376;2023-05-19T12:38:42;6.40;;;3.20;;
79124;SDS011;68527;39.470;-0.376;2023-05-19T12:41:09;4.80;;;2.60;;
79124;SDS011;68527;39.470;-0.376;2023-05-19T12:43:36;5.00;;;3.10;;
79124;SDS011;68527;39.470;-0.376;2023-05-19T12:46:11;5.30;;;3.00;;
79124;SDS011;68527;39.470;-0.376;2023-05-19T12:48:44;4.80;;;2.90;;
79124;SDS011;68527;39.470;-0.376;2023-05-19T12:51:17;6.40;;;3.40;;
79124;SDS011;68527;39.470;-0.376;2023-05-19T12:53:43;6.00;;;3.00;;
79124;SDS011;68527;39.470;-0.376;2023-05-19T12:56:13;5.40;;;3.10;;
79124;SDS011;68527;39.470;-0.376;2023-05-19T12:58:39;5.00;;;3.10;;
79124;SDS011;68527;39.470;-0.376;2023-05-19T13:01:06;7.10;;;3.20;;
79124;SDS011;68527;39.470;-0.376;2023-05-19T13:03:38;7.00;;;3.20;;
79124;SDS011;68527;39.470;-0.376;2023-05-19T13:06:05;4.70;;;3.00;;
79124;SDS011;68527;39.470;-0.376;2023-05-19T13:08:31;5.60;;;3.00;;
79124;SDS011;68527;39.470;-0.376;2023-05-19T13:10:57;4.60;;;2.80;;
79124;SDS011;68527;39.470;-0.376;2023-05-19T13:13:23;7.60;;;3.20;;
79124;SDS011;68527;39.470;-0.376;2023-05-19T13:15:49;7.70;;;3.10;;
79124;SDS011;68527;39.470;-0.376;2023-05-19T13:18:15;7.00;;;3.00;;
79124;SDS011;68527;39.470;-0.376;2023-05-19T13:20:42;4.90;;;3.00;;
79124;SDS011;68527;39.470;-0.376;2023-05-19T13:23:09;6.00;;;3.30;;
79124;SDS011;68527;39.470;-0.376;2023-05-19T13:25:35;5.90;;;3.00;;
79124;SDS011;68527;39.470;-0.376;2023-05-19T13:28:02;5.30;;;2.80;;
79124;SDS011;68527;39.470;-0.376;2023-05-19T13:30:36;5.00;;;2.90;;
79124;SDS011;68527;39.470;-0.376;2023-05-19T13:33:03;4.10;;;3.10;;
79124;SDS011;68527;39.470;-0.376;2023-05-19T13:35:28;5.40;;;3.10;;
79124;SDS011;68527;39.470;-0.376;2023-05-19T13:38:01;8.20;;;3.20;;
79124;SDS011;68527;39.470;-0.376;2023-05-19T13:40:30;5.50;;;2.90;;
79124;SDS011;68527;39.470;-0.376;2023-05-19T13:42:58;5.00;;;3.30;;
79124;SDS011;68527;39.470;-0.376;2023-05-19T13:45:24;5.90;;;3.40;;
79124;SDS011;68527;39.470;-0.376;2023-05-19T13:47:49;5.50;;;3.70;;
79124;SDS011;68527;39.470;-0.376;2023-05-19T13:50:15;7.10;;;3.50;;
79124;SDS011;68527;39.470;-0.376;2023-05-19T13:52:40;6.00;;;3.50;;
79124;SDS011;68527;39.470;-0.376;2023-05-19T13:55:07;4.90;;;3.00;;
79124;SDS011;68527;39.470;-0.376;2023-05-19T13:57:33;3.90;;;2.80;;
79124;SDS011;68527;39.470;-0.376;2023-05-19T13:59:59;5.70;;;3.10;;
79124;SDS011;68527;39.470;-0.376;2023-05-19T14:02:25;4.90;;;3.20;;
79124;SDS011;68527;39.470;-0.376;2023-05-19T14:04:50;5.70;;;3.40;;
79124;SDS011;68527;39.470;-0.376;2023-05-19T14:07:16;4.90;;;3.20;;
79124;SDS011;68527;39.470;-0.376;2023-05-19T14:09:42;5.30;;;2.90;;
79124;SDS011;68527;39.470;-0.376;2023-05-19T14:12:07;6.40;;;3.00;;
79124;SDS011;68527;39.470;-0.376;2023-05-19T14:14:36;5.00;;;3.20;;
79124;SDS011;68527;39.470;-0.376;2023-05-19T14:17:02;4.20;;;2.70;;
79124;SDS011;68527;39.470;-0.376;2023-05-19T14:19:28;7.50;;;3.00;;
79124;SDS011;68527;39.470;-0.376;2023-05-19T14:21:55;6.10;;;2.90;;
79124;SDS011;68527;39.470;-0.376;2023-05-19T14:24:21;5.10;;;2.90;;
79124;SDS011;68527;39.470;-0.376;2023-05-19T14:26:46;5.80;;;3.00;;
79124;SDS011;68527;39.470;-0.376;2023-05-19T14:29:12;4.60;;;2.50;;
79124;SDS011;68527;39.470;-0.376;2023-05-19T14:31:37;4.80;;;3.20;;
79124;SDS011;68527;39.470;-0.376;2023-05-19T14:36:29;5.60;;;2.60;;
79124;SDS011;68527;39.470;-0.376;2023-05-19T14:38:55;4.90;;;2.80;;
79124;SDS011;68527;39.470;-0.376;2023-05-19T14:43:46;4.10;;;2.90;;
79124;SDS011;68527;39.470;-0.376;2023-05-19T14:46:12;5.70;;;2.70;;
79124;SDS011;68527;39.470;-0.376;2023-05-19T14:51:03;3.10;;;2.20;;
79124;SDS011;68527;39.470;-0.376;2023-05-19T14:53:28;6.80;;;3.00;;
79124;SDS011;68527;39.470;-0.376;2023-05-19T14:55:54;4.20;;;2.50;;
79124;SDS011;68527;39.470;-0.376;2023-05-19T15:00:46;4.10;;;2.70;;
79124;SDS011;68527;39.470;-0.376;2023-05-19T15:03:12;6.50;;;3.00;;
79124;SDS011;68527;39.470;-0.376;2023-05-19T15:05:37;7.40;;;3.20;;
79124;SDS011;68527;39.470;-0.376;2023-05-19T15:08:04;5.30;;;2.70;;
79124;SDS011;68527;39.470;-0.376;2023-05-19T15:10:30;7.50;;;3.00;;
79124;SDS011;68527;39.470;-0.376;2023-05-19T15:12:56;9.30;;;2.90;;
79124;SDS011;68527;39.470;-0.376;2023-05-19T15:15:22;6.00;;;3.10;;
79124;SDS011;68527;39.470;-0.376;2023-05-19T15:20:13;7.50;;;3.10;;
79124;SDS011;68527;39.470;-0.376;2023-05-19T15:22:38;6.10;;;3.00;;
79124;SDS011;68527;39.470;-0.376;2023-05-19T15:25:04;7.10;;;2.60;;
79124;SDS011;68527;39.470;-0.376;2023-05-19T15:27:30;5.70;;;2.70;;
79124;SDS011;68527;39.470;-0.376;2023-05-19T15:29:56;6.70;;;2.50;;
79124;SDS011;68527;39.470;-0.376;2023-05-19T15:32:22;4.30;;;2.70;;
79124;SDS011;68527;39.470;-0.376;2023-05-19T15:34:48;5.50;;;2.80;;
79124;SDS011;68527;39.470;-0.376;2023-05-19T15:37:14;4.30;;;2.90;;
79124;SDS011;68527;39.470;-0.376;2023-05-19T15:39:39;6.50;;;2.50;;
79124;SDS011;68527;39.470;-0.376;2023-05-19T15:42:05;6.40;;;2.80;;
79124;SDS011;68527;39.470;-0.376;2023-05-19T15:44:31;7.10;;;3.40;;
79124;SDS011;68527;39.470;-0.376;2023-05-19T15:46:57;3.80;;;2.50;;
79124;SDS011;68527;39.470;-0.376;2023-05-19T15:49:22;6.10;;;3.20;;
79124;SDS011;68527;39.470;-0.376;2023-05-19T15:51:49;5.00;;;2.90;;
79124;SDS011;68527;39.470;-0.376;2023-05-19T15:54:14;5.90;;;2.90;;
79124;SDS011;68527;39.470;-0.376;2023-05-19T15:56:40;5.20;;;2.80;;
79124;SDS011;68527;39.470;-0.376;2023-05-19T15:59:06;5.20;;;3.10;;
79124;SDS011;68527;39.470;-0.376;2023-05-19T16:01:31;5.40;;;2.70;;